Time;durP1;ratioP1;P1;durP2;ratioP2;P2;SDS_P1;SDS_P2;PMS_P1;PMS_P2;Temp;Humidity;BMP_temperature;BMP_pressure;BME280_temperature;BME280_humidity;BME280_pressure;Samples;Min_cycle;Max_cycle;Signal;HPM_P1;HPM_P2
2023/07/13 00:00:25;;;;;;;0.13;0.13;;;;;;;21.94;100.00;99605.88;6120021;23;20033;-91
2023/07/13 00:02:53;;;;;;;9.73;0.50;;;;;;;22.03;100.00;99626.09;6120139;23;20014;-89
2023/07/13 00:05:22;;;;;;;0.20;0.20;;;;;;;21.98;100.00;99612.78;6120195;23;20446;-91
2023/07/13 00:07:49;;;;;;;0.00;0.00;;;;;;;21.99;100.00;99622.78;6119335;23;20097;-91
2023/07/13 00:10:15;;;;;;;0.10;0.10;;;;;;;21.88;100.00;99623.59;6117182;23;20021;-90
2023/07/13 00:12:40;;;;;;;0.13;0.10;;;;;;;21.74;100.00;99590.09;6092788;23;20018;-89
2023/07/13 00:15:22;;;;;;;0.65;0.50;;;;;;;21.98;100.00;99623.31;6092660;23;20447;-90
2023/07/13 00:17:52;;;;;;;0.10;0.10;;;;;;;21.93;100.00;99610.75;6094833;23;20018;-91
2023/07/13 00:20:17;;;;;;;0.55;0.55;;;;;;;21.91;100.00;99604.09;6094421;23;20024;-90
2023/07/13 00:22:43;;;;;;;0.05;0.05;;;;;;;21.59;100.00;99564.31;6094270;23;20471;-90
2023/07/13 00:25:11;;;;;;;0.22;0.15;;;;;;;21.64;100.00;99569.13;6069769;23;20093;-90
2023/07/13 00:27:37;;;;;;;0.00;0.00;;;;;;;21.74;100.00;99593.69;6118558;23;20446;-90
2023/07/13 00:30:03;;;;;;;0.38;0.20;;;;;;;21.74;100.00;99573.16;6094048;23;20006;-90
2023/07/13 00:32:30;;;;;;;0.32;0.32;;;;;;;21.79;100.00;99569.53;6118282;23;20014;-90
2023/07/13 00:34:57;;;;;;;0.22;0.20;;;;;;;21.70;100.00;99552.91;6135245;23;20009;-90
2023/07/13 00:37:23;;;;;;;0.30;0.30;;;;;;;21.55;100.00;99521.50;6099767;23;20023;-90
2023/07/13 00:39:48;;;;;;;0.20;0.20;;;;;;;21.66;100.00;99543.97;6098643;23;20041;-91
2023/07/13 00:42:14;;;;;;;0.10;0.10;;;;;;;21.73;100.00;99554.69;6122976;23;20005;-90
2023/07/13 00:44:39;;;;;;;0.32;0.28;;;;;;;21.54;100.00;99517.91;6075531;23;20159;-89
2023/07/13 00:47:05;;;;;;;0.55;0.40;;;;;;;21.63;100.00;99533.75;6123411;23;20093;-90
2023/07/13 00:49:33;;;;;;;0.15;0.15;;;;;;;21.61;100.00;99527.84;6100080;23;20013;-90
2023/07/13 00:52:09;;;;;;;0.10;0.10;;;;;;;21.58;100.00;99531.72;6124522;23;20521;-90
2023/07/13 00:54:40;;;;;;;0.38;0.22;;;;;;;21.64;100.00;99540.91;6124003;23;20358;-91
2023/07/13 00:57:11;;;;;;;0.40;0.40;;;;;;;21.53;100.00;99532.53;6123544;23;20052;-91
2023/07/13 00:59:39;;;;;;;;;;;;;;;21.45;100.00;99525.91;6101229;23;20014;-90
2023/07/13 01:04:54;;;;;;;0.10;0.10;;;;;;;21.33;100.00;99503.44;6145704;23;20045;-91
2023/07/13 01:07:19;;;;;;;0.20;0.17;;;;;;;21.31;100.00;99520.09;6099800;23;20025;-91
2023/07/13 01:09:45;;;;;;;0.00;0.00;;;;;;;21.29;100.00;99511.41;6051177;23;20033;-90
2023/07/13 01:12:11;;;;;;;0.20;0.20;;;;;;;21.27;100.00;99511.16;6075532;23;20445;-91
2023/07/13 01:14:37;;;;;;;0.30;0.20;;;;;;;21.23;100.00;99496.56;6075290;23;20017;-91
2023/07/13 01:17:03;;;;;;;0.22;0.22;;;;;;;21.18;100.00;99483.28;6075573;23;20265;-91
2023/07/13 01:19:35;;;;;;;0.50;0.40;;;;;;;21.11;100.00;99489.44;6075919;23;20060;-91
2023/07/13 01:22:03;;;;;;;0.10;0.10;;;;;;;21.05;100.00;99474.63;6099881;23;20101;-90
2023/07/13 01:24:29;;;;;;;0.00;0.00;;;;;;;21.05;100.00;99479.50;6076015;23;20047;-91
2023/07/13 01:26:55;;;;;;;0.03;0.03;;;;;;;20.88;100.00;99466.28;6075591;23;20517;-91
2023/07/13 01:29:21;;;;;;;0.03;0.03;;;;;;;20.96;100.00;99483.38;6099931;23;20006;-91
2023/07/13 01:31:47;;;;;;;0.30;0.20;;;;;;;20.86;100.00;99480.13;6099928;23;20112;-91
2023/07/13 01:34:12;;;;;;;0.17;0.10;;;;;;;21.00;100.00;99486.69;6099608;23;20061;-91
2023/07/13 01:36:38;;;;;;;3.50;1.33;;;;;;;20.94;100.00;99477.53;6075483;23;20029;-92
2023/07/13 01:39:05;;;;;;;0.45;0.28;;;;;;;21.03;100.00;99494.09;6100626;23;20045;-92
2023/07/13 01:41:30;;;;;;;0.95;0.88;;;;;;;21.06;100.00;99483.84;6101384;23;20431;-91
2023/07/13 01:43:56;;;;;;;0.10;0.10;;;;;;;20.98;100.00;99468.78;6076562;23;20017;-92
2023/07/13 01:46:22;;;;;;;0.08;0.08;;;;;;;20.98;100.00;99475.19;6102202;23;20014;-90
2023/07/13 01:48:47;;;;;;;0.28;0.28;;;;;;;21.02;100.00;99467.22;6076909;23;20009;-91
2023/07/13 01:51:13;;;;;;;0.10;0.10;;;;;;;21.05;100.00;99474.63;6077673;23;20040;-90
2023/07/13 01:53:39;;;;;;;0.05;0.05;;;;;;;21.05;100.00;99469.00;6076907;23;20029;-91
2023/07/13 01:56:04;;;;;;;0.13;0.10;;;;;;;21.06;100.00;99464.88;6078026;23;20002;-91
2023/07/13 01:58:30;;;;;;;0.15;0.15;;;;;;;21.02;100.00;99464.41;6076735;23;20306;-91
2023/07/13 02:00:56;;;;;;;2.72;0.50;;;;;;;20.96;100.00;99458.03;6077301;23;20520;-92
2023/07/13 02:03:22;;;;;;;0.32;0.30;;;;;;;21.07;100.00;99486.13;6100523;23;20024;-91
2023/07/13 02:05:47;;;;;;;0.75;0.65;;;;;;;21.11;100.00;99492.25;6077515;23;20017;-91
2023/07/13 02:08:13;;;;;;;0.30;0.30;;;;;;;20.97;100.00;99464.44;6101622;23;20103;-91
2023/07/13 02:10:39;;;;;;;1.73;0.85;;;;;;;21.02;100.00;99478.50;6077250;23;20012;-91
2023/07/13 02:13:06;;;;;;;1.73;0.77;;;;;;;20.86;100.00;99479.38;6100287;23;20458;-91
2023/07/13 02:15:32;;;;;;;0.10;0.10;;;;;;;20.94;100.00;99488.81;6077386;23;20093;-91
2023/07/13 02:17:58;;;;;;;0.60;0.40;;;;;;;20.89;100.00;99495.22;6076812;23;20052;-91
2023/07/13 02:20:24;;;;;;;0.10;0.10;;;;;;;20.89;100.00;99490.38;6101518;23;20064;-92
2023/07/13 02:22:50;;;;;;;0.25;0.25;;;;;;;20.82;100.00;99509.88;6077429;23;20105;-92
2023/07/13 02:25:18;;;;;;;0.47;0.20;;;;;;;20.79;100.00;99537.03;6101815;23;20014;-91
2023/07/13 02:27:44;;;;;;;0.00;0.00;;;;;;;20.74;100.00;99537.09;6100705;23;20445;-90
2023/07/13 02:30:11;;;;;;;0.20;0.20;;;;;;;20.76;100.00;99534.50;6100858;23;20526;-91
2023/07/13 02:32:36;;;;;;;0.00;0.00;;;;;;;20.50;100.00;99508.75;6076810;23;20002;-92
2023/07/13 02:35:03;;;;;;;0.20;0.20;;;;;;;20.60;100.00;99509.97;6100463;23;20025;-91
2023/07/13 02:37:29;;;;;;;0.43;0.43;;;;;;;20.61;100.00;99509.47;6077263;23;20044;-91
2023/07/13 02:39:55;;;;;;;0.73;0.50;;;;;;;20.57;100.00;99502.56;6077203;23;20014;-90
2023/07/13 02:42:22;;;;;;;0.43;0.30;;;;;;;20.58;100.00;99527.41;6101524;23;20052;-92
2023/07/13 02:44:49;;;;;;;0.40;0.28;;;;;;;20.49;100.00;99524.88;6100527;23;20005;-91
2023/07/13 02:47:15;;;;;;;1.45;0.90;;;;;;;20.63;100.00;99540.69;6101286;23;20022;-91
2023/07/13 02:49:40;;;;;;;0.45;0.20;;;;;;;20.54;100.00;99548.69;6100285;23;20013;-91
2023/07/13 02:52:06;;;;;;;0.08;0.08;;;;;;;20.64;100.00;99569.66;6076112;23;20044;-92
2023/07/13 02:54:32;;;;;;;0.10;0.10;;;;;;;20.67;100.00;99574.25;6100197;23;20005;-91
2023/07/13 02:56:57;;;;;;;0.90;0.55;;;;;;;20.69;100.00;99605.50;6099852;23;20104;-90
2023/07/13 02:59:23;;;;;;;0.10;0.10;;;;;;;20.63;100.00;99723.09;6101113;23;20093;-91
2023/07/13 03:01:49;;;;;;;17.83;0.50;;;;;;;20.57;100.00;99815.31;6100977;23;20146;-90
2023/07/13 03:04:19;;;;;;;0.20;0.20;;;;;;;20.37;100.00;99848.09;6104319;23;20010;-90
2023/07/13 03:06:46;;;;;;;11.27;0.47;;;;;;;20.18;100.00;99855.41;6089716;23;20021;-90
2023/07/13 03:09:12;;;;;;;0.40;0.30;;;;;;;19.94;100.00;99869.94;6086180;23;20632;-90
2023/07/13 03:11:41;;;;;;;1.17;1.08;;;;;;;19.54;100.00;99861.78;6100854;23;20465;-90
2023/07/13 03:14:33;;;;;;;4.03;0.65;;;;;;;18.93;100.00;99855.72;6109497;23;20017;-89
2023/07/13 03:17:00;;;;;;;0.35;0.35;;;;;;;19.02;100.00;99887.25;6100097;23;20014;-89
2023/07/13 03:19:29;;;;;;;0.25;0.17;;;;;;;18.88;100.00;99893.78;6100282;23;20092;-89
2023/07/13 03:21:55;;;;;;;0.20;0.20;;;;;;;18.79;100.00;99924.06;6124644;23;20484;-90
2023/07/13 03:24:23;;;;;;;0.50;0.30;;;;;;;18.84;100.00;99954.28;6099831;23;20104;-91
2023/07/13 03:26:50;;;;;;;0.00;0.00;;;;;;;18.88;100.00;99985.75;6076868;23;20045;-89
2023/07/13 03:29:17;;;;;;;0.30;0.15;;;;;;;18.80;100.00;99964.97;6100060;23;20020;-90
2023/07/13 03:31:43;;;;;;;0.40;0.40;;;;;;;18.68;100.00;99941.59;6076762;23;20497;-90
2023/07/13 03:34:08;;;;;;;0.57;0.57;;;;;;;18.76;100.00;99863.25;6123801;23;20400;-89
2023/07/13 03:36:36;;;;;;;0.22;0.22;;;;;;;18.74;100.00;99891.06;6099740;23;20013;-88
2023/07/13 03:39:08;;;;;;;0.73;0.60;;;;;;;18.78;100.00;99852.28;6100483;23;20441;-90
2023/07/13 03:41:55;;;;;;;1.67;1.05;;;;;;;18.71;100.00;99793.72;6085112;23;20330;-89
2023/07/13 03:44:22;;;;;;;0.85;0.52;;;;;;;18.64;100.00;99773.25;6100200;23;20017;-89
2023/07/13 03:46:52;;;;;;;0.10;0.10;;;;;;;18.58;100.00;99704.25;6078230;23;20009;-88
2023/07/13 03:49:17;;;;;;;0.20;0.20;;;;;;;18.41;100.00;99619.84;6075726;23;20020;-89
2023/07/13 03:51:43;;;;;;;0.75;0.70;;;;;;;18.35;100.00;99601.44;6075490;23;20049;-89
2023/07/13 03:54:09;;;;;;;2.55;0.80;;;;;;;18.42;100.00;99603.78;6123933;23;20017;-89
2023/07/13 03:56:34;;;;;;;3.03;1.58;;;;;;;18.45;100.00;99656.88;6075957;23;20071;-90
2023/07/13 03:59:02;;;;;;;0.13;0.13;;;;;;;18.48;100.00;99681.16;6124433;23;20445;-89
2023/07/13 04:01:29;;;;;;;0.00;0.00;;;;;;;18.35;100.00;99672.41;6075850;23;20024;-89
2023/07/13 04:03:54;;;;;;;0.35;0.13;;;;;;;18.47;100.00;99693.69;6098505;23;20705;-89
2023/07/13 04:06:25;;;;;;;0.30;0.30;;;;;;;18.54;100.00;99718.53;6122614;23;20464;-88
2023/07/13 04:08:53;;;;;;;0.00;0.00;;;;;;;18.59;100.00;99785.22;6098130;23;20013;-90
2023/07/13 04:11:20;;;;;;;0.00;0.00;;;;;;;18.32;100.00;99723.91;6123619;23;20021;-89
2023/07/13 04:13:46;;;;;;;0.22;0.22;;;;;;;18.62;100.00;99826.34;6099118;23;20013;-90
2023/07/13 04:16:13;;;;;;;0.00;0.00;;;;;;;18.47;100.00;99853.78;6097685;23;20020;-89
2023/07/13 04:18:38;;;;;;;0.17;0.17;;;;;;;18.45;100.00;99783.25;6098214;23;20013;-90
2023/07/13 04:21:04;;;;;;;0.30;0.25;;;;;;;18.54;100.00;99797.16;6123260;23;20048;-90
2023/07/13 04:23:29;;;;;;;0.10;0.10;;;;;;;18.71;100.00;99796.53;6123519;23;20044;-92
2023/07/13 04:25:55;;;;;;;0.08;0.08;;;;;;;18.71;100.00;99771.25;6123853;23;20371;-91
2023/07/13 04:28:22;;;;;;;0.45;0.35;;;;;;;18.72;100.00;99782.00;6075518;23;20426;-91
2023/07/13 04:30:48;;;;;;;1.88;1.02;;;;;;;18.55;100.00;99756.59;6124186;23;20028;-91
2023/07/13 04:33:14;;;;;;;0.00;0.00;;;;;;;18.47;100.00;99718.97;6075282;23;20021;-91
2023/07/13 04:35:39;;;;;;;0.05;0.05;;;;;;;18.67;100.00;99666.78;6100202;23;20021;-91
2023/07/13 04:38:05;;;;;;;0.10;0.10;;;;;;;18.63;100.00;99583.50;6123143;23;20017;-91
2023/07/13 04:40:31;;;;;;;2.13;1.30;;;;;;;18.52;100.00;99414.91;6150364;23;20457;-91
2023/07/13 04:42:56;;;;;;;0.10;0.10;;;;;;;18.47;100.00;99224.69;6124183;23;20005;-92
2023/07/13 04:45:24;;;;;;;0.00;0.00;;;;;;;18.16;100.00;99137.91;6153809;23;20018;-92
2023/07/13 04:47:49;;;;;;;0.55;0.43;;;;;;;18.36;100.00;99224.69;6075284;23;20481;-90
2023/07/13 04:50:18;;;;;;;0.20;0.20;;;;;;;18.44;100.00;99283.94;6122743;23;20088;-90
2023/07/13 04:52:44;;;;;;;0.32;0.32;;;;;;;18.59;100.00;99296.47;6074193;23;20009;-91
2023/07/13 04:55:10;;;;;;;0.10;0.10;;;;;;;18.56;100.00;99305.91;6123716;23;20454;-90
2023/07/13 04:57:36;;;;;;;0.45;0.45;;;;;;;18.73;100.00;99350.09;6098411;23;20005;-90
2023/07/13 05:00:06;;;;;;;1.85;0.65;;;;;;;18.93;100.00;99394.81;6075569;23;20088;-91
2023/07/13 05:02:33;;;;;;;0.05;0.05;;;;;;;19.01;100.00;99440.81;6076561;23;20088;-90
2023/07/13 05:04:59;;;;;;;0.00;0.00;;;;;;;19.00;100.00;99496.28;6074414;23;20068;-91
2023/07/13 05:07:25;;;;;;;0.55;0.32;;;;;;;18.81;100.00;99525.31;6123390;23;20387;-90
2023/07/13 05:09:51;;;;;;;0.00;0.00;;;;;;;18.99;100.00;99572.66;6074306;23;20418;-92
2023/07/13 05:12:16;;;;;;;0.50;0.50;;;;;;;18.87;100.00;99585.13;6099229;23;20024;-91
2023/07/13 05:14:42;;;;;;;0.30;0.25;;;;;;;19.02;100.00;99661.59;6076098;23;20065;-91
2023/07/13 05:17:08;;;;;;;0.43;0.43;;;;;;;19.03;100.00;99637.84;6101726;23;20013;-91
2023/07/13 05:19:33;;;;;;;0.00;0.00;;;;;;;19.01;100.00;99598.22;6101387;23;20010;-91
2023/07/13 05:21:59;;;;;;;0.40;0.40;;;;;;;19.11;100.00;99664.19;6101221;23;20449;-91
2023/07/13 05:24:24;;;;;;;0.40;0.40;;;;;;;19.15;100.00;99680.81;6077116;23;20028;-91
2023/07/13 05:26:50;;;;;;;0.10;0.10;;;;;;;19.18;100.00;99674.94;6100547;23;20012;-91
2023/07/13 05:29:15;;;;;;;0.13;0.13;;;;;;;19.16;100.00;99666.25;6102038;23;20068;-92
2023/07/13 05:31:41;;;;;;;0.25;0.25;;;;;;;19.23;100.00;99674.22;6101256;23;20124;-91
2023/07/13 05:34:06;;;;;;;0.38;0.20;;;;;;;19.36;100.00;99676.56;6078242;23;20013;-91
2023/07/13 05:36:32;;;;;;;0.03;0.03;;;;;;;19.49;100.00;99686.09;6104746;23;20009;-91
2023/07/13 05:38:57;;;;;;;0.20;0.10;;;;;;;19.55;100.00;99689.69;6104766;23;20120;-91
2023/07/13 05:41:23;;;;;;;0.30;0.30;;;;;;;19.69;100.00;99696.38;6128598;23;20017;-91
2023/07/13 05:43:48;;;;;;;0.00;0.00;;;;;;;19.64;100.00;99687.94;6106315;23;20663;-92
2023/07/13 05:46:14;;;;;;;0.20;0.20;;;;;;;19.73;100.00;99690.50;6080163;23;20454;-91
2023/07/13 05:48:40;;;;;;;0.10;0.10;;;;;;;19.72;100.00;99680.53;6077015;23;20005;-92
2023/07/13 05:51:05;;;;;;;0.35;0.35;;;;;;;19.90;100.00;99700.50;6077791;23;20017;-92
2023/07/13 05:53:31;;;;;;;0.00;0.00;;;;;;;20.02;100.00;99732.25;6101747;23;20015;-92
2023/07/13 05:55:56;;;;;;;0.13;0.10;;;;;;;20.03;100.00;99719.72;6076683;23;20017;-92
2023/07/13 05:58:22;;;;;;;0.52;0.43;;;;;;;20.12;100.00;99744.06;6076892;23;20022;-92
2023/07/13 06:00:48;;;;;;;0.00;0.00;;;;;;;20.21;100.00;99747.41;6125956;23;20013;-92
2023/07/13 06:03:14;;;;;;;2.30;0.57;;;;;;;20.32;100.00;99741.03;6076425;23;20020;-92
2023/07/13 06:05:40;;;;;;;0.40;0.17;;;;;;;20.25;100.00;99733.06;6124843;23;20056;-92
2023/07/13 06:08:06;;;;;;;0.30;0.30;;;;;;;20.33;100.00;99751.81;6074913;23;20018;-92
2023/07/13 06:10:33;;;;;;;0.20;0.20;;;;;;;20.36;100.00;99750.78;6101669;23;20056;-93
2023/07/13 06:12:58;;;;;;;0.00;0.00;;;;;;;20.55;100.00;99767.16;6100196;23;20014;-92
2023/07/13 06:15:24;;;;;;;0.43;0.43;;;;;;;20.81;100.00;99759.22;6100467;23;20454;-92
2023/07/13 06:17:49;;;;;;;0.20;0.20;;;;;;;21.11;100.00;99765.81;6100322;23;20037;-92
2023/07/13 06:20:15;;;;;;;0.10;0.10;;;;;;;21.39;100.00;99757.31;6098924;23;20005;-92
2023/07/13 06:22:40;;;;;;;0.63;0.63;;;;;;;21.55;100.00;99775.47;6075041;23;20492;-92
2023/07/13 06:25:07;;;;;;;0.10;0.10;;;;;;;21.88;100.00;99772.47;6098525;23;20445;-92
2023/07/13 06:27:32;;;;;;;0.22;0.13;;;;;;;22.16;100.00;99755.44;6074678;23;20100;-92
2023/07/13 06:29:58;;;;;;;0.00;0.00;;;;;;;22.40;100.00;99757.56;6122762;23;20096;-92
2023/07/13 06:32:23;;;;;;;0.10;0.10;;;;;;;22.51;100.00;99749.00;6097579;23;20022;-92
2023/07/13 06:34:51;;;;;;;1.17;1.08;;;;;;;22.74;100.00;99753.19;6100221;23;20156;-91
2023/07/13 06:37:16;;;;;;;0.20;0.20;;;;;;;23.05;100.00;99766.00;6101533;23;20017;-91
2023/07/13 06:39:42;;;;;;;0.65;0.47;;;;;;;23.22;100.00;99775.84;6124655;23;20016;-91
2023/07/13 06:42:07;;;;;;;0.57;0.20;;;;;;;23.23;100.00;99768.88;6100359;23;20568;-91
2023/07/13 06:44:33;;;;;;;0.10;0.10;;;;;;;23.42;100.00;99782.31;6076884;23;20013;-91
2023/07/13 06:46:59;;;;;;;0.40;0.40;;;;;;;23.46;100.00;99783.56;6125284;23;20017;-91
2023/07/13 06:49:24;;;;;;;0.20;0.10;;;;;;;23.44;100.00;99769.19;6100133;23;20442;-91
2023/07/13 06:51:50;;;;;;;0.20;0.20;;;;;;;23.83;100.00;99785.69;6076945;23;20021;-91
2023/07/13 06:54:15;;;;;;;0.38;0.38;;;;;;;24.10;100.00;99784.53;6125022;23;20542;-91
2023/07/13 06:56:41;;;;;;;0.10;0.10;;;;;;;24.20;100.00;99789.84;6100505;23;20009;-91
2023/07/13 06:59:06;;;;;;;0.25;0.25;;;;;;;24.09;100.00;99788.69;6100780;23;20031;-91
2023/07/13 07:01:32;;;;;;;0.25;0.20;;;;;;;24.20;100.00;99782.13;6125294;23;20018;-90
2023/07/13 07:03:57;;;;;;;0.45;0.40;;;;;;;24.23;100.00;99800.88;6099518;23;20013;-90
2023/07/13 07:06:23;;;;;;;0.20;0.20;;;;;;;24.13;100.00;99800.50;6125521;23;20017;-90
2023/07/13 07:08:50;;;;;;;0.50;0.50;;;;;;;24.13;100.00;99800.50;6099887;23;20490;-90
2023/07/13 07:11:24;;;;;;;0.65;0.63;;;;;;;24.14;100.00;99802.03;6098847;23;20032;-90
2023/07/13 07:13:51;;;;;;;0.17;0.17;;;;;;;23.85;100.00;99802.94;6148882;23;20466;-91
2023/07/13 07:16:17;;;;;;;0.20;0.10;;;;;;;23.72;100.00;99783.00;6125387;23;20025;-90
2023/07/13 07:18:42;;;;;;;0.10;0.10;;;;;;;23.99;100.00;99787.53;6099276;23;20018;-90
2023/07/13 07:21:08;;;;;;;0.32;0.32;;;;;;;24.11;100.00;99790.97;6100771;23;20005;-90
2023/07/13 07:23:33;;;;;;;0.00;0.00;;;;;;;23.75;100.00;99770.63;6125249;23;20014;-90
2023/07/13 07:25:58;;;;;;;0.73;0.43;;;;;;;24.00;100.00;99791.16;6124635;23;20021;-90
2023/07/13 07:28:24;;;;;;;0.20;0.20;;;;;;;24.19;100.00;99791.16;6070961;23;20017;-90
2023/07/13 07:30:53;;;;;;;0.22;0.22;;;;;;;24.33;100.00;99773.69;6122715;23;20024;-90
2023/07/13 07:33:18;;;;;;;0.10;0.10;;;;;;;24.75;100.00;99802.41;6121748;23;20157;-90
2023/07/13 07:35:44;;;;;;;0.20;0.20;;;;;;;24.81;100.00;99809.53;6097108;23;20018;-90
2023/07/13 07:38:09;;;;;;;0.80;0.30;;;;;;;24.65;100.00;99802.06;6074790;23;20028;-90
2023/07/13 07:40:41;;;;;;;0.10;0.10;;;;;;;24.70;100.00;99812.53;6100602;23;20092;-90
2023/07/13 07:43:07;;;;;;;0.30;0.30;;;;;;;24.92;100.00;99798.00;6099382;23;20021;-90
2023/07/13 07:45:34;;;;;;;0.77;0.57;;;;;;;25.13;100.00;99815.19;6125474;23;20017;-90
2023/07/13 07:47:59;;;;;;;0.30;0.30;;;;;;;25.49;100.00;99804.19;6122627;23;20017;-90
2023/07/13 07:50:26;;;;;;;0.22;0.22;;;;;;;25.97;100.00;99823.63;6100747;23;20056;-90
2023/07/13 07:52:51;;;;;;;0.43;0.43;;;;;;;26.08;100.00;99822.63;6100030;23;20041;-89
2023/07/13 07:55:17;;;;;;;0.20;0.20;;;;;;;26.62;100.00;99821.91;6100342;23;19997;-89
2023/07/13 07:57:43;;;;;;;0.20;0.20;;;;;;;26.80;99.64;99829.50;6124078;23;20044;-89
2023/07/13 08:00:09;;;;;;;0.20;0.20;;;;;;;26.78;99.21;99823.59;6101161;23;20013;-90
2023/07/13 08:02:41;;;;;;;0.45;0.35;;;;;;;26.62;100.00;99818.31;6125630;23;20327;-90
2023/07/13 08:05:08;;;;;;;0.52;0.52;;;;;;;26.57;94.78;99817.13;6124045;23;20092;-89
2023/07/13 08:07:33;;;;;;;0.57;0.57;;;;;;;26.49;98.09;99802.06;6150087;23;20041;-89
2023/07/13 08:09:59;;;;;;;0.65;0.65;;;;;;;26.67;96.85;99814.56;6145185;23;20060;-89
2023/07/13 08:12:25;;;;;;;0.20;0.20;;;;;;;26.82;97.12;99812.63;6097654;23;20017;-89
2023/07/13 08:14:57;;;;;;;0.22;0.20;;;;;;;27.31;96.49;99831.84;6122120;23;20060;-89
2023/07/13 08:17:23;;;;;;;0.30;0.30;;;;;;;27.19;91.20;99814.28;6099370;23;20021;-88
2023/07/13 08:19:48;;;;;;;0.15;0.15;;;;;;;27.15;90.34;99815.97;6121222;23;20072;-89
2023/07/13 08:22:14;;;;;;;0.70;0.70;;;;;;;27.07;87.83;99806.59;6120503;23;20021;-89
2023/07/13 08:27:24;;;;;;;1.05;0.77;;;;;;;27.01;91.20;99808.84;6124006;23;20254;-89
2023/07/13 08:29:50;;;;;;;0.22;0.22;;;;;;;26.66;92.86;99813.81;6122539;23;20020;-89
2023/07/13 08:32:16;;;;;;;0.20;0.20;;;;;;;26.73;94.75;99815.94;6121571;23;20337;-89
2023/07/13 08:34:42;;;;;;;0.17;0.17;;;;;;;27.07;94.09;99815.91;6096311;23;20013;-90
2023/07/13 08:37:08;;;;;;;0.38;0.32;;;;;;;27.47;94.67;99809.94;6098425;23;20425;-89
2023/07/13 08:39:34;;;;;;;1.17;0.82;;;;;;;27.69;89.35;99803.63;6147142;23;20024;-89
2023/07/13 08:42:25;;;;;;;0.30;0.30;;;;;;;27.65;87.43;99823.94;6147859;23;20013;-88
2023/07/13 08:45:23;;;;;;;0.20;0.20;;;;;;;27.87;88.33;99821.75;6106048;23;20398;-89
2023/07/13 08:47:54;;;;;;;3.25;1.35;;;;;;;27.89;85.72;99819.13;6122166;23;20092;-89
2023/07/13 08:50:24;;;;;;;0.30;0.30;;;;;;;28.03;79.52;99817.66;6120277;23;20385;-89
2023/07/13 08:52:49;;;;;;;0.47;0.47;;;;;;;28.16;79.74;99824.00;6098143;23;20021;-89
2023/07/13 08:55:18;;;;;;;3.22;1.20;;;;;;;28.37;80.12;99821.03;6096164;23;20009;-89
2023/07/13 08:57:47;;;;;;;0.38;0.38;;;;;;;28.68;76.92;99836.13;6096773;23;20009;-89
2023/07/13 09:00:14;;;;;;;0.65;0.65;;;;;;;28.64;76.54;99824.31;6121157;23;20032;-90
2023/07/13 09:02:46;;;;;;;10.45;1.10;;;;;;;28.45;81.20;99835.31;6073543;23;20096;-89
2023/07/13 09:05:15;;;;;;;0.40;0.40;;;;;;;28.18;76.99;99826.31;6120598;23;20028;-90
2023/07/13 09:08:03;;;;;;;0.60;0.50;;;;;;;28.11;80.45;99830.63;6096734;23;20341;-90
2023/07/13 09:10:40;;;;;;;0.65;0.50;;;;;;;27.97;85.75;99832.09;6120758;23;20017;-89
2023/07/13 09:13:31;;;;;;;0.40;0.40;;;;;;;28.02;84.93;99833.25;6147821;23;20018;-89
2023/07/13 09:15:59;;;;;;;0.30;0.30;;;;;;;28.16;86.25;99826.88;6073896;23;20696;-89
2023/07/13 09:18:47;;;;;;;0.20;0.20;;;;;;;28.46;81.91;99822.59;6120244;23;20015;-89
2023/07/13 09:21:16;;;;;;;0.50;0.32;;;;;;;28.66;79.09;99828.16;6121982;23;20017;-89
2023/07/13 09:23:42;;;;;;;0.57;0.40;;;;;;;29.01;80.90;99815.06;6097385;23;20018;-90
2023/07/13 09:26:22;;;;;;;0.38;0.25;;;;;;;29.56;75.18;99823.78;6121897;23;20016;-89
2023/07/13 09:28:51;;;;;;;0.52;0.52;;;;;;;29.57;70.64;99830.28;6120233;23;20024;-90
2023/07/13 09:31:19;;;;;;;0.50;0.50;;;;;;;29.32;70.22;99837.94;6096960;23;20320;-90
2023/07/13 09:33:45;;;;;;;1.17;0.43;;;;;;;29.43;75.14;99841.16;6096472;23;20354;-90
2023/07/13 09:36:18;;;;;;;0.50;0.50;;;;;;;29.49;71.52;99835.25;6097295;23;20048;-90
2023/07/13 09:38:45;;;;;;;0.32;0.32;;;;;;;29.70;66.88;99838.63;6097421;23;20458;-90
2023/07/13 09:41:28;;;;;;;0.22;0.22;;;;;;;30.08;64.70;99827.09;6122440;23;20005;-90
2023/07/13 09:44:30;;;;;;;0.22;0.22;;;;;;;30.09;61.59;99828.59;6096084;23;20013;-90
2023/07/13 09:46:56;;;;;;;0.35;0.35;;;;;;;29.87;61.75;99826.59;6097851;23;20052;-90
2023/07/13 09:49:27;;;;;;;3.35;0.55;;;;;;;30.07;67.80;99831.31;6095940;23;20387;-89
2023/07/13 09:52:04;;;;;;;0.45;0.45;;;;;;;30.43;65.82;99834.59;6121859;23;20013;-90
2023/07/13 09:54:33;;;;;;;0.50;0.50;;;;;;;30.83;63.70;99830.91;6096583;23;20014;-91
2023/07/13 09:57:00;;;;;;;0.30;0.30;;;;;;;31.05;58.67;99837.84;6122242;23;20020;-91
2023/07/13 09:59:31;;;;;;;1.42;0.75;;;;;;;31.62;56.72;99838.47;6121689;23;20005;-91
2023/07/13 10:01:56;;;;;;;0.40;0.40;;;;;;;31.05;57.43;99832.09;6100974;23;20033;-91
2023/07/13 10:04:33;;;;;;;0.30;0.30;;;;;;;31.23;57.11;99825.06;6127963;23;20021;-90
2023/07/13 10:07:13;;;;;;;0.70;0.70;;;;;;;31.30;52.72;99807.06;6132958;23;20088;-91
2023/07/13 10:09:38;;;;;;;0.40;0.40;;;;;;;31.33;51.82;99809.50;6080096;23;20030;-91
2023/07/13 10:12:14;;;;;;;0.75;0.63;;;;;;;30.95;57.13;99809.03;6123552;23;20464;-91
2023/07/13 10:14:39;;;;;;;0.15;0.15;;;;;;;31.42;58.18;99799.47;6098134;23;20017;-91
2023/07/13 10:17:08;;;;;;;0.40;0.40;;;;;;;30.80;54.47;99809.16;6124386;23;20014;-90
2023/07/13 10:19:35;;;;;;;0.40;0.40;;;;;;;30.96;55.36;99807.69;6121908;23;20024;-91
2023/07/13 10:22:03;;;;;;;0.47;0.47;;;;;;;31.10;55.88;99802.47;6075565;23;20100;-91
2023/07/13 10:24:32;;;;;;;0.75;0.43;;;;;;;31.45;55.14;99776.13;6074262;23;20025;-90
2023/07/13 10:27:20;;;;;;;0.30;0.30;;;;;;;31.42;52.25;99779.41;6098946;23;20017;-91
2023/07/13 10:29:48;;;;;;;0.63;0.60;;;;;;;31.80;55.05;99776.13;6122875;23;20047;-92
2023/07/13 10:32:14;;;;;;;0.43;0.43;;;;;;;31.91;50.29;99749.78;6074324;23;20436;-92
2023/07/13 10:34:45;;;;;;;0.32;0.32;;;;;;;31.94;47.93;99780.19;6097316;23;20017;-91
2023/07/13 10:37:20;;;;;;;0.43;0.43;;;;;;;32.17;51.34;99785.63;6099190;23;20009;-91
2023/07/13 10:39:46;;;;;;;0.70;0.70;;;;;;;32.42;51.95;99791.22;6074462;23;20434;-91
2023/07/13 10:42:15;;;;;;;0.65;0.50;;;;;;;32.66;54.55;99796.06;6122717;23;20024;-91
2023/07/13 10:44:41;;;;;;;0.40;0.40;;;;;;;32.21;49.85;99785.97;6074271;23;20068;-92
2023/07/13 10:47:10;;;;;;;0.25;0.25;;;;;;;32.28;43.50;99776.47;6122748;23;20021;-91
2023/07/13 10:49:36;;;;;;;0.30;0.30;;;;;;;31.53;41.31;99769.56;6097789;23;20541;-91
2023/07/13 10:52:02;;;;;;;1.02;0.98;;;;;;;31.47;41.60;99770.56;6074665;23;20052;-92
2023/07/13 10:54:33;;;;;;;0.73;0.73;;;;;;;31.28;45.59;99793.31;6097878;23;20013;-91
2023/07/13 10:57:09;;;;;;;0.25;0.25;;;;;;;31.74;44.56;99785.00;6097986;23;20454;-92
2023/07/13 10:59:35;;;;;;;0.30;0.30;;;;;;;31.88;41.97;99799.75;6098236;23;20402;-92
2023/07/13 11:02:06;;;;;;;0.30;0.30;;;;;;;31.84;43.35;99796.53;6074161;23;20018;-92
2023/07/13 11:04:44;;;;;;;1.02;0.93;;;;;;;32.02;42.70;99795.19;6121991;23;20048;-91
2023/07/13 11:07:21;;;;;;;0.40;0.40;;;;;;;31.98;42.98;99811.31;6074578;23;20029;-93
2023/07/13 11:09:53;;;;;;;0.30;0.30;;;;;;;31.63;40.20;99810.53;6098274;23;20018;-92
2023/07/13 11:12:26;;;;;;;0.50;0.50;;;;;;;31.61;42.69;99816.13;6073194;23;20049;-92
2023/07/13 11:14:55;;;;;;;0.95;0.50;;;;;;;31.68;44.62;99809.53;6097963;23;20017;-92
2023/07/13 11:17:27;;;;;;;0.40;0.40;;;;;;;31.86;44.49;99782.38;6121495;23;20127;-92
2023/07/13 11:19:53;;;;;;;0.93;0.85;;;;;;;31.63;52.58;99802.72;6097686;23;20022;-90
2023/07/13 11:22:26;;;;;;;1.48;1.08;;;;;;;31.68;45.97;99803.81;6098240;23;20302;-93
2023/07/13 11:24:56;;;;;;;0.30;0.30;;;;;;;31.78;48.70;99801.78;6122355;23;20025;-93
2023/07/13 11:27:38;;;;;;;0.73;0.70;;;;;;;31.90;43.51;99777.75;6121924;23;20464;-93
2023/07/13 11:30:28;;;;;;;0.52;0.43;;;;;;;32.09;44.04;99779.25;6123519;23;20017;-92
2023/07/13 11:33:07;;;;;;;0.75;0.75;;;;;;;32.24;42.01;99768.31;6098161;23;20099;-92
2023/07/13 11:35:38;;;;;;;0.28;0.28;;;;;;;32.21;41.35;99775.25;6121891;23;20029;-93